sensor_id;sensor_type;location;lat;lon;timestamp;P1;durP1;ratioP1;P2;durP2;ratioP2
3355;SDS011;1691;52.486;13.374;2023-05-07T00:01:50;13.27;;;12.07;;
3355;SDS011;1691;52.486;13.374;2023-05-07T00:04:18;13.90;;;12.50;;
3355;SDS011;1691;52.486;13.374;2023-05-07T00:06:49;14.03;;;12.63;;
3355;SDS011;1691;52.486;13.374;2023-05-07T00:09:16;13.20;;;11.80;;
3355;SDS011;1691;52.486;13.374;2023-05-07T00:11:43;16.63;;;12.20;;
3355;SDS011;1691;52.486;13.374;2023-05-07T00:14:11;18.83;;;11.37;;
3355;SDS011;1691;52.486;13.374;2023-05-07T00:16:38;14.83;;;11.80;;
3355;SDS011;1691;52.486;13.374;2023-05-07T00:19:05;13.57;;;11.73;;
3355;SDS011;1691;52.486;13.374;2023-05-07T00:21:32;12.70;;;11.50;;
3355;SDS011;1691;52.486;13.374;2023-05-07T00:23:59;11.60;;;10.60;;
3355;SDS011;1691;52.486;13.374;2023-05-07T00:26:26;15.03;;;11.00;;
3355;SDS011;1691;52.486;13.374;2023-05-07T00:28:53;16.83;;;11.13;;
3355;SDS011;1691;52.486;13.374;2023-05-07T00:31:20;10.70;;;9.90;;
3355;SDS011;1691;52.486;13.374;2023-05-07T00:33:47;11.97;;;10.80;;
3355;SDS011;1691;52.486;13.374;2023-05-07T00:36:14;11.03;;;10.13;;
3355;SDS011;1691;52.486;13.374;2023-05-07T00:38:42;17.30;;;11.30;;
3355;SDS011;1691;52.486;13.374;2023-05-07T00:41:09;11.30;;;10.23;;
3355;SDS011;1691;52.486;13.374;2023-05-07T00:43:36;11.20;;;10.13;;
3355;SDS011;1691;52.486;13.374;2023-05-07T00:46:04;10.43;;;9.10;;
3355;SDS011;1691;52.486;13.374;2023-05-07T00:48:31;12.93;;;10.30;;
3355;SDS011;1691;52.486;13.374;2023-05-07T00:50:59;11.03;;;10.30;;
3355;SDS011;1691;52.486;13.374;2023-05-07T00:53:30;11.27;;;10.37;;
3355;SDS011;1691;52.486;13.374;2023-05-07T00:55:57;11.37;;;10.37;;
3355;SDS011;1691;52.486;13.374;2023-05-07T00:58:29;15.90;;;9.80;;
3355;SDS011;1691;52.486;13.374;2023-05-07T01:00:57;11.40;;;10.50;;
3355;SDS011;1691;52.486;13.374;2023-05-07T01:03:24;10.87;;;10.13;;
3355;SDS011;1691;52.486;13.374;2023-05-07T01:05:52;14.60;;;10.93;;
3355;SDS011;1691;52.486;13.374;2023-05-07T01:08:21;13.77;;;11.17;;
3355;SDS011;1691;52.486;13.374;2023-05-07T01:10:52;12.23;;;10.93;;
3355;SDS011;1691;52.486;13.374;2023-05-07T01:13:21;11.67;;;10.47;;
3355;SDS011;1691;52.486;13.374;2023-05-07T01:15:48;14.40;;;9.60;;
3355;SDS011;1691;52.486;13.374;2023-05-07T01:18:15;11.33;;;10.33;;
3355;SDS011;1691;52.486;13.374;2023-05-07T01:20:42;11.40;;;10.43;;
3355;SDS011;1691;52.486;13.374;2023-05-07T01:23:10;11.30;;;10.10;;
3355;SDS011;1691;52.486;13.374;2023-05-07T01:25:37;11.77;;;10.73;;
3355;SDS011;1691;52.486;13.374;2023-05-07T01:28:04;10.97;;;10.03;;
3355;SDS011;1691;52.486;13.374;2023-05-07T01:30:32;17.77;;;10.17;;
3355;SDS011;1691;52.486;13.374;2023-05-07T01:33:03;13.20;;;11.90;;
3355;SDS011;1691;52.486;13.374;2023-05-07T01:35:37;11.43;;;10.43;;
3355;SDS011;1691;52.486;13.374;2023-05-07T01:38:08;10.77;;;9.90;;
3355;SDS011;1691;52.486;13.374;2023-05-07T01:40:35;11.17;;;10.33;;
3355;SDS011;1691;52.486;13.374;2023-05-07T01:43:03;12.43;;;9.87;;
3355;SDS011;1691;52.486;13.374;2023-05-07T01:45:30;14.83;;;10.67;;
3355;SDS011;1691;52.486;13.374;2023-05-07T01:47:58;9.90;;;8.73;;
3355;SDS011;1691;52.486;13.374;2023-05-07T01:50:27;10.53;;;9.53;;
3355;SDS011;1691;52.486;13.374;2023-05-07T01:52:56;10.60;;;9.80;;
3355;SDS011;1691;52.486;13.374;2023-05-07T01:55:23;31.00;;;9.60;;
3355;SDS011;1691;52.486;13.374;2023-05-07T01:57:50;11.63;;;10.03;;
3355;SDS011;1691;52.486;13.374;2023-05-07T02:00:17;10.73;;;9.40;;
3355;SDS011;1691;52.486;13.374;2023-05-07T02:02:45;10.00;;;9.03;;
3355;SDS011;1691;52.486;13.374;2023-05-07T02:05:13;20.00;;;9.10;;
3355;SDS011;1691;52.486;13.374;2023-05-07T02:07:40;10.87;;;9.90;;
3355;SDS011;1691;52.486;13.374;2023-05-07T02:10:07;11.20;;;9.80;;
3355;SDS011;1691;52.486;13.374;2023-05-07T02:12:35;9.53;;;8.83;;
3355;SDS011;1691;52.486;13.374;2023-05-07T02:15:02;11.20;;;10.10;;
3355;SDS011;1691;52.486;13.374;2023-05-07T02:17:29;11.93;;;10.53;;
3355;SDS011;1691;52.486;13.374;2023-05-07T02:19:58;11.30;;;10.10;;
3355;SDS011;1691;52.486;13.374;2023-05-07T02:22:26;10.13;;;8.87;;
3355;SDS011;1691;52.486;13.374;2023-05-07T02:24:53;14.33;;;10.00;;
3355;SDS011;1691;52.486;13.374;2023-05-07T02:27:20;10.90;;;9.90;;
3355;SDS011;1691;52.486;13.374;2023-05-07T02:29:47;11.17;;;9.80;;
3355;SDS011;1691;52.486;13.374;2023-05-07T02:32:14;12.63;;;10.60;;
3355;SDS011;1691;52.486;13.374;2023-05-07T02:34:42;11.03;;;10.00;;
3355;SDS011;1691;52.486;13.374;2023-05-07T02:37:10;10.20;;;9.40;;
3355;SDS011;1691;52.486;13.374;2023-05-07T02:39:37;11.63;;;10.37;;
3355;SDS011;1691;52.486;13.374;2023-05-07T02:42:04;10.77;;;9.90;;
3355;SDS011;1691;52.486;13.374;2023-05-07T02:44:31;12.40;;;10.60;;
3355;SDS011;1691;52.486;13.374;2023-05-07T02:46:58;10.80;;;9.90;;
3355;SDS011;1691;52.486;13.374;2023-05-07T02:49:28;11.97;;;10.03;;
3355;SDS011;1691;52.486;13.374;2023-05-07T02:51:55;14.23;;;10.87;;
3355;SDS011;1691;52.486;13.374;2023-05-07T02:54:22;10.83;;;9.80;;
3355;SDS011;1691;52.486;13.374;2023-05-07T02:56:49;10.57;;;9.67;;
3355;SDS011;1691;52.486;13.374;2023-05-07T02:59:16;11.20;;;10.10;;
3355;SDS011;1691;52.486;13.374;2023-05-07T03:01:43;10.63;;;9.60;;
3355;SDS011;1691;52.486;13.374;2023-05-07T03:04:11;10.57;;;9.67;;
3355;SDS011;1691;52.486;13.374;2023-05-07T03:06:38;12.40;;;10.87;;
3355;SDS011;1691;52.486;13.374;2023-05-07T03:09:05;11.97;;;10.87;;
3355;SDS011;1691;52.486;13.374;2023-05-07T03:11:32;10.43;;;9.63;;
3355;SDS011;1691;52.486;13.374;2023-05-07T03:13:59;13.97;;;9.70;;
3355;SDS011;1691;52.486;13.374;2023-05-07T03:16:27;10.73;;;9.93;;
3355;SDS011;1691;52.486;13.374;2023-05-07T03:18:54;11.80;;;9.47;;
3355;SDS011;1691;52.486;13.374;2023-05-07T03:21:21;9.97;;;8.97;;
3355;SDS011;1691;52.486;13.374;2023-05-07T03:23:48;9.43;;;8.73;;
3355;SDS011;1691;52.486;13.374;2023-05-07T03:26:15;10.37;;;9.37;;
3355;SDS011;1691;52.486;13.374;2023-05-07T03:28:42;9.23;;;8.50;;
3355;SDS011;1691;52.486;13.374;2023-05-07T03:31:09;9.57;;;8.67;;
3355;SDS011;1691;52.486;13.374;2023-05-07T03:33:38;10.23;;;8.63;;
3355;SDS011;1691;52.486;13.374;2023-05-07T03:36:20;10.87;;;9.83;;
3355;SDS011;1691;52.486;13.374;2023-05-07T03:38:48;10.17;;;9.17;;
3355;SDS011;1691;52.486;13.374;2023-05-07T03:41:15;9.97;;;9.27;;
3355;SDS011;1691;52.486;13.374;2023-05-07T03:43:42;15.80;;;10.13;;
3355;SDS011;1691;52.486;13.374;2023-05-07T03:46:09;9.70;;;8.90;;
3355;SDS011;1691;52.486;13.374;2023-05-07T03:48:37;9.77;;;9.07;;
3355;SDS011;1691;52.486;13.374;2023-05-07T03:51:04;12.07;;;10.87;;
3355;SDS011;1691;52.486;13.374;2023-05-07T04:15:35;11.03;;;10.03;;
3355;SDS011;1691;52.486;13.374;2023-05-07T04:22:30;10.17;;;9.20;;
3355;SDS011;1691;52.486;13.374;2023-05-07T04:24:57;9.53;;;8.60;;
3355;SDS011;1691;52.486;13.374;2023-05-07T04:27:24;11.17;;;9.57;;
3355;SDS011;1691;52.486;13.374;2023-05-07T04:29:52;9.40;;;8.80;;
3355;SDS011;1691;52.486;13.374;2023-05-07T04:32:22;9.83;;;8.77;;
3355;SDS011;1691;52.486;13.374;2023-05-07T04:34:51;10.23;;;9.33;;
3355;SDS011;1691;52.486;13.374;2023-05-07T04:37:18;10.57;;;8.63;;
3355;SDS011;1691;52.486;13.374;2023-05-07T04:39:45;9.97;;;9.10;;
3355;SDS011;1691;52.486;13.374;2023-05-07T04:42:15;8.63;;;7.80;;
3355;SDS011;1691;52.486;13.374;2023-05-07T04:44:44;8.53;;;7.53;;
3355;SDS011;1691;52.486;13.374;2023-05-07T04:47:11;8.40;;;7.77;;
3355;SDS011;1691;52.486;13.374;2023-05-07T04:49:38;8.00;;;7.30;;
3355;SDS011;1691;52.486;13.374;2023-05-07T04:52:06;8.63;;;8.00;;
3355;SDS011;1691;52.486;13.374;2023-05-07T04:54:33;15.13;;;8.87;;
3355;SDS011;1691;52.486;13.374;2023-05-07T04:57:03;8.83;;;7.53;;
3355;SDS011;1691;52.486;13.374;2023-05-07T04:59:30;9.23;;;8.13;;
3355;SDS011;1691;52.486;13.374;2023-05-07T05:01:59;8.00;;;7.33;;
3355;SDS011;1691;52.486;13.374;2023-05-07T05:04:32;9.63;;;7.67;;
3355;SDS011;1691;52.486;13.374;2023-05-07T05:06:59;8.57;;;7.73;;
3355;SDS011;1691;52.486;13.374;2023-05-07T05:09:31;7.47;;;6.97;;
3355;SDS011;1691;52.486;13.374;2023-05-07T05:11:58;6.97;;;6.67;;
3355;SDS011;1691;52.486;13.374;2023-05-07T05:14:25;17.20;;;8.17;;
3355;SDS011;1691;52.486;13.374;2023-05-07T05:16:53;8.47;;;7.73;;
3355;SDS011;1691;52.486;13.374;2023-05-07T05:19:20;7.73;;;7.23;;
3355;SDS011;1691;52.486;13.374;2023-05-07T05:21:47;7.40;;;6.73;;
3355;SDS011;1691;52.486;13.374;2023-05-07T05:24:14;6.93;;;6.33;;
3355;SDS011;1691;52.486;13.374;2023-05-07T05:26:41;6.40;;;6.00;;
3355;SDS011;1691;52.486;13.374;2023-05-07T05:29:08;7.53;;;6.50;;
3355;SDS011;1691;52.486;13.374;2023-05-07T05:31:35;6.00;;;5.60;;
3355;SDS011;1691;52.486;13.374;2023-05-07T05:34:02;6.70;;;6.27;;
3355;SDS011;1691;52.486;13.374;2023-05-07T05:36:30;6.80;;;6.30;;
3355;SDS011;1691;52.486;13.374;2023-05-07T05:38:57;6.57;;;6.10;;
3355;SDS011;1691;52.486;13.374;2023-05-07T05:41:24;7.77;;;7.17;;
3355;SDS011;1691;52.486;13.374;2023-05-07T05:43:51;6.90;;;6.50;;
3355;SDS011;1691;52.486;13.374;2023-05-07T05:46:18;10.57;;;7.77;;
3355;SDS011;1691;52.486;13.374;2023-05-07T05:48:45;7.37;;;6.90;;
3355;SDS011;1691;52.486;13.374;2023-05-07T05:51:12;7.00;;;6.50;;
3355;SDS011;1691;52.486;13.374;2023-05-07T05:53:39;7.60;;;6.90;;
3355;SDS011;1691;52.486;13.374;2023-05-07T05:56:06;8.60;;;7.23;;
3355;SDS011;1691;52.486;13.374;2023-05-07T05:58:33;6.17;;;5.83;;
3355;SDS011;1691;52.486;13.374;2023-05-07T06:01:00;6.30;;;5.90;;
3355;SDS011;1691;52.486;13.374;2023-05-07T06:03:28;11.37;;;6.40;;
3355;SDS011;1691;52.486;13.374;2023-05-07T06:05:56;10.73;;;6.07;;
3355;SDS011;1691;52.486;13.374;2023-05-07T06:08:22;6.27;;;5.87;;
3355;SDS011;1691;52.486;13.374;2023-05-07T06:10:50;7.20;;;6.60;;
3355;SDS011;1691;52.486;13.374;2023-05-07T06:13:17;6.80;;;6.20;;
3355;SDS011;1691;52.486;13.374;2023-05-07T06:15:44;10.23;;;6.57;;
3355;SDS011;1691;52.486;13.374;2023-05-07T06:18:11;6.30;;;5.90;;
3355;SDS011;1691;52.486;13.374;2023-05-07T06:20:38;6.60;;;6.20;;
3355;SDS011;1691;52.486;13.374;2023-05-07T06:23:06;6.90;;;6.40;;
3355;SDS011;1691;52.486;13.374;2023-05-07T06:25:33;6.43;;;5.87;;
3355;SDS011;1691;52.486;13.374;2023-05-07T06:28:00;9.67;;;8.50;;
3355;SDS011;1691;52.486;13.374;2023-05-07T06:30:27;6.47;;;6.13;;
3355;SDS011;1691;52.486;13.374;2023-05-07T06:32:54;14.23;;;9.50;;
3355;SDS011;1691;52.486;13.374;2023-05-07T06:35:21;7.43;;;6.83;;
3355;SDS011;1691;52.486;13.374;2023-05-07T06:37:48;6.80;;;6.10;;
3355;SDS011;1691;52.486;13.374;2023-05-07T06:40:14;7.10;;;6.60;;
3355;SDS011;1691;52.486;13.374;2023-05-07T06:42:41;6.57;;;6.17;;
3355;SDS011;1691;52.486;13.374;2023-05-07T06:45:09;6.50;;;6.10;;
3355;SDS011;1691;52.486;13.374;2023-05-07T06:47:36;15.37;;;6.83;;
3355;SDS011;1691;52.486;13.374;2023-05-07T06:50:03;5.93;;;5.50;;
3355;SDS011;1691;52.486;13.374;2023-05-07T06:52:31;9.30;;;5.80;;
3355;SDS011;1691;52.486;13.374;2023-05-07T06:54:59;7.07;;;6.37;;
3355;SDS011;1691;52.486;13.374;2023-05-07T06:57:29;5.63;;;5.30;;
3355;SDS011;1691;52.486;13.374;2023-05-07T06:59:55;6.47;;;6.00;;
3355;SDS011;1691;52.486;13.374;2023-05-07T07:02:22;6.50;;;5.20;;
3355;SDS011;1691;52.486;13.374;2023-05-07T07:04:49;4.90;;;4.60;;
3355;SDS011;1691;52.486;13.374;2023-05-07T07:07:16;5.80;;;5.50;;
3355;SDS011;1691;52.486;13.374;2023-05-07T07:09:43;7.33;;;5.40;;
3355;SDS011;1691;52.486;13.374;2023-05-07T07:12:10;6.80;;;5.70;;
3355;SDS011;1691;52.486;13.374;2023-05-07T07:14:37;6.27;;;5.87;;
3355;SDS011;1691;52.486;13.374;2023-05-07T07:17:04;5.50;;;5.07;;
3355;SDS011;1691;52.486;13.374;2023-05-07T07:19:31;4.83;;;4.63;;
3355;SDS011;1691;52.486;13.374;2023-05-07T07:21:58;5.70;;;5.33;;
3355;SDS011;1691;52.486;13.374;2023-05-07T07:24:25;5.47;;;5.00;;
3355;SDS011;1691;52.486;13.374;2023-05-07T07:51:30;2.70;;;2.60;;
3355;SDS011;1691;52.486;13.374;2023-05-07T07:53:56;2.80;;;2.70;;
3355;SDS011;1691;52.486;13.374;2023-05-07T07:56:24;3.50;;;3.20;;
3355;SDS011;1691;52.486;13.374;2023-05-07T07:58:51;3.57;;;3.37;;
3355;SDS011;1691;52.486;13.374;2023-05-07T08:01:18;7.97;;;4.60;;
3355;SDS011;1691;52.486;13.374;2023-05-07T08:03:45;3.80;;;3.20;;
3355;SDS011;1691;52.486;13.374;2023-05-07T08:06:12;3.07;;;2.97;;
3355;SDS011;1691;52.486;13.374;2023-05-07T08:08:40;2.97;;;2.70;;
3355;SDS011;1691;52.486;13.374;2023-05-07T08:11:07;3.33;;;3.10;;
3355;SDS011;1691;52.486;13.374;2023-05-07T08:13:34;3.10;;;2.90;;
3355;SDS011;1691;52.486;13.374;2023-05-07T08:16:02;2.87;;;2.67;;
3355;SDS011;1691;52.486;13.374;2023-05-07T08:18:29;3.27;;;3.00;;
3355;SDS011;1691;52.486;13.374;2023-05-07T08:20:56;12.13;;;2.90;;
3355;SDS011;1691;52.486;13.374;2023-05-07T08:23:24;2.83;;;2.63;;
3355;SDS011;1691;52.486;13.374;2023-05-07T08:25:50;2.70;;;2.60;;
3355;SDS011;1691;52.486;13.374;2023-05-07T08:28:18;3.00;;;2.83;;
3355;SDS011;1691;52.486;13.374;2023-05-07T08:30:46;3.50;;;2.10;;
3355;SDS011;1691;52.486;13.374;2023-05-07T08:33:13;5.63;;;3.10;;
3355;SDS011;1691;52.486;13.374;2023-05-07T08:35:40;5.03;;;2.70;;
3355;SDS011;1691;52.486;13.374;2023-05-07T08:38:07;4.30;;;2.77;;
3355;SDS011;1691;52.486;13.374;2023-05-07T08:40:36;3.20;;;2.90;;
3355;SDS011;1691;52.486;13.374;2023-05-07T08:43:05;2.60;;;2.50;;
3355;SDS011;1691;52.486;13.374;2023-05-07T08:45:34;2.57;;;2.40;;
3355;SDS011;1691;52.486;13.374;2023-05-07T08:48:02;3.23;;;3.03;;
3355;SDS011;1691;52.486;13.374;2023-05-07T08:50:32;7.23;;;2.47;;
3355;SDS011;1691;52.486;13.374;2023-05-07T08:53:04;2.87;;;2.63;;
3355;SDS011;1691;52.486;13.374;2023-05-07T08:55:31;2.57;;;2.47;;
3355;SDS011;1691;52.486;13.374;2023-05-07T08:57:59;3.27;;;2.90;;
3355;SDS011;1691;52.486;13.374;2023-05-07T09:00:27;3.00;;;2.50;;
3355;SDS011;1691;52.486;13.374;2023-05-07T09:02:54;4.03;;;2.50;;
3355;SDS011;1691;52.486;13.374;2023-05-07T09:05:22;2.10;;;2.00;;
3355;SDS011;1691;52.486;13.374;2023-05-07T09:07:49;2.10;;;2.00;;
3355;SDS011;1691;52.486;13.374;2023-05-07T09:10:20;2.70;;;2.57;;
3355;SDS011;1691;52.486;13.374;2023-05-07T09:12:47;4.20;;;2.47;;
3355;SDS011;1691;52.486;13.374;2023-05-07T09:15:14;1.90;;;1.80;;
3355;SDS011;1691;52.486;13.374;2023-05-07T09:17:42;3.00;;;2.30;;
3355;SDS011;1691;52.486;13.374;2023-05-07T09:20:10;6.13;;;2.60;;
3355;SDS011;1691;52.486;13.374;2023-05-07T09:22:37;3.47;;;2.77;;
3355;SDS011;1691;52.486;13.374;2023-05-07T09:25:06;2.17;;;2.07;;
3355;SDS011;1691;52.486;13.374;2023-05-07T09:27:34;4.10;;;2.60;;
3355;SDS011;1691;52.486;13.374;2023-05-07T09:30:05;2.50;;;2.30;;
3355;SDS011;1691;52.486;13.374;2023-05-07T09:32:36;2.50;;;2.40;;
3355;SDS011;1691;52.486;13.374;2023-05-07T09:35:04;3.10;;;2.80;;
3355;SDS011;1691;52.486;13.374;2023-05-07T09:37:32;3.60;;;2.27;;
3355;SDS011;1691;52.486;13.374;2023-05-07T09:39:59;2.73;;;2.63;;
3355;SDS011;1691;52.486;13.374;2023-05-07T09:42:29;7.13;;;2.87;;
3355;SDS011;1691;52.486;13.374;2023-05-07T09:44:56;3.80;;;2.30;;
3355;SDS011;1691;52.486;13.374;2023-05-07T09:47:25;5.90;;;2.80;;
3355;SDS011;1691;52.486;13.374;2023-05-07T09:49:58;2.53;;;2.33;;
3355;SDS011;1691;52.486;13.374;2023-05-07T09:52:30;2.60;;;2.40;;
3355;SDS011;1691;52.486;13.374;2023-05-07T09:54:59;2.60;;;2.50;;
3355;SDS011;1691;52.486;13.374;2023-05-07T09:57:29;2.80;;;2.70;;
3355;SDS011;1691;52.486;13.374;2023-05-07T09:59:58;3.23;;;2.90;;
3355;SDS011;1691;52.486;13.374;2023-05-07T10:02:30;2.70;;;2.57;;
3355;SDS011;1691;52.486;13.374;2023-05-07T10:05:00;1.90;;;1.80;;
3355;SDS011;1691;52.486;13.374;2023-05-07T10:07:27;2.10;;;2.00;;
3355;SDS011;1691;52.486;13.374;2023-05-07T10:09:56;2.50;;;2.40;;
3355;SDS011;1691;52.486;13.374;2023-05-07T10:12:29;2.20;;;2.10;;
3355;SDS011;1691;52.486;13.374;2023-05-07T10:15:05;2.50;;;2.40;;
3355;SDS011;1691;52.486;13.374;2023-05-07T10:17:37;3.37;;;1.73;;
3355;SDS011;1691;52.486;13.374;2023-05-07T10:20:06;2.83;;;2.40;;
3355;SDS011;1691;52.486;13.374;2023-05-07T10:22:38;2.70;;;1.90;;
3355;SDS011;1691;52.486;13.374;2023-05-07T10:25:18;1.63;;;1.53;;
3355;SDS011;1691;52.486;13.374;2023-05-07T10:27:50;1.97;;;1.87;;
3355;SDS011;1691;52.486;13.374;2023-05-07T10:32:59;2.00;;;1.90;;
3355;SDS011;1691;52.486;13.374;2023-05-07T10:35:37;1.97;;;1.87;;
3355;SDS011;1691;52.486;13.374;2023-05-07T10:38:07;1.80;;;1.70;;
3355;SDS011;1691;52.486;13.374;2023-05-07T10:40:35;5.30;;;1.37;;
3355;SDS011;1691;52.486;13.374;2023-05-07T10:43:03;5.83;;;1.50;;
3355;SDS011;1691;52.486;13.374;2023-05-07T10:45:35;2.40;;;2.00;;
3355;SDS011;1691;52.486;13.374;2023-05-07T10:48:11;1.60;;;1.50;;
3355;SDS011;1691;52.486;13.374;2023-05-07T10:50:43;4.27;;;1.67;;
3355;SDS011;1691;52.486;13.374;2023-05-07T10:55:47;2.40;;;1.80;;
3355;SDS011;1691;52.486;13.374;2023-05-07T10:58:26;1.53;;;1.43;;
3355;SDS011;1691;52.486;13.374;2023-05-07T11:00:57;1.60;;;1.50;;
3355;SDS011;1691;52.486;13.374;2023-05-07T11:03:27;1.67;;;1.57;;
3355;SDS011;1691;52.486;13.374;2023-05-07T11:08:54;1.60;;;1.50;;
3355;SDS011;1691;52.486;13.374;2023-05-07T11:17:07;1.67;;;1.57;;
3355;SDS011;1691;52.486;13.374;2023-05-07T11:22:36;4.15;;;1.70;;
3355;SDS011;1691;52.486;13.374;2023-05-07T11:25:06;2.30;;;2.17;;
3355;SDS011;1691;52.486;13.374;2023-05-07T11:27:33;3.20;;;1.67;;
3355;SDS011;1691;52.486;13.374;2023-05-07T11:30:00;1.80;;;1.70;;
3355;SDS011;1691;52.486;13.374;2023-05-07T11:32:29;4.30;;;2.07;;
3355;SDS011;1691;52.486;13.374;2023-05-07T11:34:59;3.70;;;1.60;;
3355;SDS011;1691;52.486;13.374;2023-05-07T11:37:29;1.80;;;1.70;;
3355;SDS011;1691;52.486;13.374;2023-05-07T11:40:06;1.80;;;1.30;;
3355;SDS011;1691;52.486;13.374;2023-05-07T11:42:37;2.33;;;1.97;;
3355;SDS011;1691;52.486;13.374;2023-05-07T11:45:07;1.83;;;1.73;;
3355;SDS011;1691;52.486;13.374;2023-05-07T11:47:35;1.87;;;1.77;;
3355;SDS011;1691;52.486;13.374;2023-05-07T11:50:07;1.73;;;1.63;;
3355;SDS011;1691;52.486;13.374;2023-05-07T11:52:36;5.53;;;1.77;;
3355;SDS011;1691;52.486;13.374;2023-05-07T11:55:06;2.50;;;2.17;;
3355;SDS011;1691;52.486;13.374;2023-05-07T11:57:34;1.93;;;1.83;;
3355;SDS011;1691;52.486;13.374;2023-05-07T12:00:02;2.20;;;2.10;;
3355;SDS011;1691;52.486;13.374;2023-05-07T12:02:31;4.80;;;1.77;;
3355;SDS011;1691;52.486;13.374;2023-05-07T12:05:00;2.10;;;2.00;;
3355;SDS011;1691;52.486;13.374;2023-05-07T12:07:33;1.97;;;1.87;;
3355;SDS011;1691;52.486;13.374;2023-05-07T12:10:04;2.17;;;1.60;;
3355;SDS011;1691;52.486;13.374;2023-05-07T12:12:45;1.90;;;1.80;;
3355;SDS011;1691;52.486;13.374;2023-05-07T12:15:15;1.90;;;1.80;;
3355;SDS011;1691;52.486;13.374;2023-05-07T12:17:44;2.03;;;1.93;;
3355;SDS011;1691;52.486;13.374;2023-05-07T12:20:11;1.70;;;1.60;;
3355;SDS011;1691;52.486;13.374;2023-05-07T12:22:38;2.40;;;1.47;;
3355;SDS011;1691;52.486;13.374;2023-05-07T12:25:06;1.77;;;1.67;;
3355;SDS011;1691;52.486;13.374;2023-05-07T12:27:36;2.40;;;2.27;;
3355;SDS011;1691;52.486;13.374;2023-05-07T12:30:04;1.80;;;1.70;;
3355;SDS011;1691;52.486;13.374;2023-05-07T12:32:32;1.70;;;1.60;;
3355;SDS011;1691;52.486;13.374;2023-05-07T12:35:03;1.90;;;1.80;;
3355;SDS011;1691;52.486;13.374;2023-05-07T12:37:32;1.63;;;1.53;;
3355;SDS011;1691;52.486;13.374;2023-05-07T12:42:37;3.17;;;1.87;;
3355;SDS011;1691;52.486;13.374;2023-05-07T12:45:09;2.50;;;1.83;;
3355;SDS011;1691;52.486;13.374;2023-05-07T12:47:46;2.53;;;1.70;;
3355;SDS011;1691;52.486;13.374;2023-05-07T12:50:14;1.63;;;1.53;;
3355;SDS011;1691;52.486;13.374;2023-05-07T12:52:42;1.90;;;1.80;;
3355;SDS011;1691;52.486;13.374;2023-05-07T12:55:19;2.00;;;1.90;;
3355;SDS011;1691;52.486;13.374;2023-05-07T12:57:47;1.73;;;1.63;;
3355;SDS011;1691;52.486;13.374;2023-05-07T13:00:17;1.63;;;1.53;;
3355;SDS011;1691;52.486;13.374;2023-05-07T13:03:04;1.47;;;1.37;;
3355;SDS011;1691;52.486;13.374;2023-05-07T13:05:32;4.97;;;2.07;;
3355;SDS011;1691;52.486;13.374;2023-05-07T13:07:59;1.87;;;1.53;;
3355;SDS011;1691;52.486;13.374;2023-05-07T13:10:26;1.60;;;1.50;;
3355;SDS011;1691;52.486;13.374;2023-05-07T13:12:53;1.73;;;1.63;;
3355;SDS011;1691;52.486;13.374;2023-05-07T13:15:20;1.53;;;1.43;;
3355;SDS011;1691;52.486;13.374;2023-05-07T13:17:48;1.60;;;1.50;;
3355;SDS011;1691;52.486;13.374;2023-05-07T13:20:15;16.07;;;1.30;;
3355;SDS011;1691;52.486;13.374;2023-05-07T13:22:42;1.80;;;1.40;;
3355;SDS011;1691;52.486;13.374;2023-05-07T13:25:09;6.10;;;1.60;;
3355;SDS011;1691;52.486;13.374;2023-05-07T13:27:36;1.70;;;1.60;;
3355;SDS011;1691;52.486;13.374;2023-05-07T13:30:04;1.83;;;1.70;;
3355;SDS011;1691;52.486;13.374;2023-05-07T13:32:31;3.43;;;1.57;;
3355;SDS011;1691;52.486;13.374;2023-05-07T13:34:58;3.63;;;1.70;;
3355;SDS011;1691;52.486;13.374;2023-05-07T13:37:29;1.57;;;1.47;;
3355;SDS011;1691;52.486;13.374;2023-05-07T13:39:56;1.83;;;1.73;;
3355;SDS011;1691;52.486;13.374;2023-05-07T13:42:22;1.37;;;1.27;;
3355;SDS011;1691;52.486;13.374;2023-05-07T13:44:49;1.93;;;1.83;;
3355;SDS011;1691;52.486;13.374;2023-05-07T13:47:16;3.90;;;2.90;;
3355;SDS011;1691;52.486;13.374;2023-05-07T13:49:43;5.50;;;3.50;;
3355;SDS011;1691;52.486;13.374;2023-05-07T13:52:10;1.83;;;1.73;;
3355;SDS011;1691;52.486;13.374;2023-05-07T13:54:37;1.17;;;1.07;;
3355;SDS011;1691;52.486;13.374;2023-05-07T13:57:04;1.37;;;1.33;;
3355;SDS011;1691;52.486;13.374;2023-05-07T13:59:31;1.73;;;1.63;;
3355;SDS011;1691;52.486;13.374;2023-05-07T14:01:58;1.73;;;1.63;;
3355;SDS011;1691;52.486;13.374;2023-05-07T14:04:26;1.90;;;1.80;;
3355;SDS011;1691;52.486;13.374;2023-05-07T14:06:52;2.20;;;2.10;;
3355;SDS011;1691;52.486;13.374;2023-05-07T14:09:19;2.23;;;2.13;;
3355;SDS011;1691;52.486;13.374;2023-05-07T14:11:46;3.30;;;1.77;;
3355;SDS011;1691;52.486;13.374;2023-05-07T14:14:17;1.20;;;1.10;;
3355;SDS011;1691;52.486;13.374;2023-05-07T14:16:44;1.37;;;1.27;;
3355;SDS011;1691;52.486;13.374;2023-05-07T14:19:15;5.73;;;1.70;;
3355;SDS011;1691;52.486;13.374;2023-05-07T14:21:42;1.33;;;1.07;;
3355;SDS011;1691;52.486;13.374;2023-05-07T14:24:08;2.80;;;1.43;;
3355;SDS011;1691;52.486;13.374;2023-05-07T14:26:36;1.50;;;1.40;;
3355;SDS011;1691;52.486;13.374;2023-05-07T14:29:03;1.70;;;1.60;;
3355;SDS011;1691;52.486;13.374;2023-05-07T14:31:30;1.10;;;1.10;;
3355;SDS011;1691;52.486;13.374;2023-05-07T14:33:57;1.50;;;1.10;;
3355;SDS011;1691;52.486;13.374;2023-05-07T14:36:25;1.00;;;1.00;;
3355;SDS011;1691;52.486;13.374;2023-05-07T14:38:56;1.30;;;1.20;;
3355;SDS011;1691;52.486;13.374;2023-05-07T14:41:25;3.63;;;1.00;;
3355;SDS011;1691;52.486;13.374;2023-05-07T14:43:52;3.17;;;1.50;;
3355;SDS011;1691;52.486;13.374;2023-05-07T14:46:19;1.33;;;1.23;;
3355;SDS011;1691;52.486;13.374;2023-05-07T14:48:46;1.57;;;1.47;;
3355;SDS011;1691;52.486;13.374;2023-05-07T14:51:13;1.77;;;1.67;;
3355;SDS011;1691;52.486;13.374;2023-05-07T14:53:40;2.17;;;1.30;;
3355;SDS011;1691;52.486;13.374;2023-05-07T14:56:08;2.00;;;1.67;;
3355;SDS011;1691;52.486;13.374;2023-05-07T14:58:35;1.40;;;1.20;;
3355;SDS011;1691;52.486;13.374;2023-05-07T15:01:03;1.27;;;1.17;;
3355;SDS011;1691;52.486;13.374;2023-05-07T15:03:30;1.77;;;1.33;;
3355;SDS011;1691;52.486;13.374;2023-05-07T15:05:57;4.07;;;1.30;;
3355;SDS011;1691;52.486;13.374;2023-05-07T15:08:24;1.43;;;1.33;;
3355;SDS011;1691;52.486;13.374;2023-05-07T15:10:51;3.00;;;1.33;;
3355;SDS011;1691;52.486;13.374;2023-05-07T15:13:18;11.70;;;1.20;;
3355;SDS011;1691;52.486;13.374;2023-05-07T15:15:45;8.13;;;6.37;;
3355;SDS011;1691;52.486;13.374;2023-05-07T15:18:12;2.67;;;2.37;;
3355;SDS011;1691;52.486;13.374;2023-05-07T15:20:40;1.20;;;1.20;;
3355;SDS011;1691;52.486;13.374;2023-05-07T15:23:08;8.83;;;1.70;;
3355;SDS011;1691;52.486;13.374;2023-05-07T15:25:40;1.30;;;1.20;;
3355;SDS011;1691;52.486;13.374;2023-05-07T15:28:07;1.50;;;1.40;;
3355;SDS011;1691;52.486;13.374;2023-05-07T15:30:35;1.70;;;1.60;;
3355;SDS011;1691;52.486;13.374;2023-05-07T15:33:02;1.20;;;1.20;;
3355;SDS011;1691;52.486;13.374;2023-05-07T15:35:30;1.40;;;1.30;;
3355;SDS011;1691;52.486;13.374;2023-05-07T15:37:57;1.70;;;1.60;;
3355;SDS011;1691;52.486;13.374;2023-05-07T15:40:24;1.50;;;1.40;;
3355;SDS011;1691;52.486;13.374;2023-05-07T15:42:53;3.40;;;1.17;;
3355;SDS011;1691;52.486;13.374;2023-05-07T15:45:22;2.30;;;1.50;;
3355;SDS011;1691;52.486;13.374;2023-05-07T15:47:50;1.50;;;1.40;;
3355;SDS011;1691;52.486;13.374;2023-05-07T15:50:17;1.60;;;1.50;;
3355;SDS011;1691;52.486;13.374;2023-05-07T15:52:44;1.70;;;1.60;;
3355;SDS011;1691;52.486;13.374;2023-05-07T15:55:12;1.23;;;1.03;;
3355;SDS011;1691;52.486;13.374;2023-05-07T15:57:40;1.97;;;1.77;;
3355;SDS011;1691;52.486;13.374;2023-05-07T16:00:07;5.23;;;1.40;;
3355;SDS011;1691;52.486;13.374;2023-05-07T16:02:36;4.80;;;1.60;;
3355;SDS011;1691;52.486;13.374;2023-05-07T16:05:03;3.67;;;1.70;;
3355;SDS011;1691;52.486;13.374;2023-05-07T16:07:34;2.00;;;1.17;;
3355;SDS011;1691;52.486;13.374;2023-05-07T16:10:02;2.50;;;1.47;;
3355;SDS011;1691;52.486;13.374;2023-05-07T16:12:30;2.10;;;2.00;;